• Join FlightAware (Why Join?)
  • Login
  • US Flag 
10:53AM EDT


 

Airport Tracker/Info


-or-


 

Live Flight TrackerFlight Track Log ✈ N903MC ✈ 17-Jun-2012 ✈ KFTW - KATS

Flight Track Log - Related Links

Times and Time Zones

All times are in EDT time to prevent confusion due to time zone crossing. See the N903MC flight status page for this flight to view local times or setup timezone preferences in your user account.

Time Position Orientation Groundspeed Altitude Reporting Facility
EDT Latitude Longitude Course Direction KTS MPH feet Rate Location/Type
07:40PM 32.7967 -97.3558 173° South 172 198 1,700  Level FAA TRACON SMA TRACON (SMA)
07:41PM 32.7514 -97.3492 227° Southwest 238 274 3,100 2,280 Climbing FAA TRACON SMA TRACON (SMA)
07:41PM 32.7231 -97.3850 244° Southwest 262 302 4,800 2,700 Climbing FAA TRACON SMA TRACON (SMA)
07:42PM 32.7044 -97.4308 302° West 260 299 6,700 2,700 Climbing FAA TRACON SMA TRACON (SMA)
07:43PM 32.7300 -97.4789 343° North 273 314 8,400 2,880 Climbing FAA TRACON SMA TRACON (SMA)
07:43PM 32.7786 -97.4964 348° North 272 313 10,500 3,000 Climbing FAA TRACON SMA TRACON (SMA)
07:44PM 32.8281 -97.5089 North 261 300 12,500 2,640 Climbing FAA TRACON SMA TRACON (SMA)
07:45PM 32.8714 -97.5078 316° Northwest 264 304 14,100 2,220 Climbing FAA TRACON SMA TRACON (SMA)
07:45PM 32.9028 -97.5433 283° West 257 296 15,500 2,220 Climbing FAA TRACON SMA TRACON (SMA)
07:46PM 32.9186 -97.6281 274° West 274 315 17,100 2,400 Climbing FAA TRACON SMA TRACON (SMA)
07:47PM 32.9219 -97.6922 272° West 283 326 18,700 1,440 Climbing FAA TRACON SMA TRACON (SMA)
07:47PM 32.9236 -97.7542 271° West 308 354 19,000 180 Climbing FAA TRACON SMA TRACON (SMA)
07:48PM 32.9247 -97.8328 271° West 350 403 19,000 360 Level FAA TRACON SMA TRACON (SMA)
07:49PM 32.9261 -97.9053 271° West 356 410 19,500 720 Climbing FAA TRACON SMA TRACON (SMA)
07:49PM 32.9275 -97.9864 272° West 353 406 20,000 660 Climbing FAA TRACON SMA TRACON (SMA)
07:50PM 32.9294 -98.0681 269° West 358 412 20,400 1,140 Climbing FAA TRACON SMA TRACON (SMA)
07:51PM 32.9269 -98.2031 271° West 354 407 22,200 1,260 Climbing Fort Worth Center
07:52PM 32.9283 -98.2919 271° West 346 398 23,300 1,440 Climbing Fort Worth Center
07:53PM 32.9294 -98.4183 274° West 346 398 25,100 1,560 Climbing Fort Worth Center
07:54PM 32.9350 -98.5247 269° West 334 384 26,500 1,440 Climbing Fort Worth Center
07:55PM 32.9339 -98.6361 271° West 334 384 28,000 1,500 Climbing Fort Worth Center
07:56PM 32.9347 -98.7475 271° West 334 384 29,500 1,500 Climbing Fort Worth Center
07:57PM 32.9356 -98.8589 272° West 334 384 31,100 1,500 Climbing Fort Worth Center
07:58PM 32.9386 -98.9678 270° West 334 384 32,600 1,500 Climbing Fort Worth Center
07:59PM 32.9392 -99.0744 271° West 328 377 34,100 1,500 Climbing Fort Worth Center
08:00PM 32.9400 -99.1783 270° West 328 377 35,600 1,500 Climbing Fort Worth Center
08:01PM 32.9406 -99.2822 269° West 328 377 37,100 1,200 Climbing Fort Worth Center
08:02PM 32.9389 -99.3861 270° West 328 377 38,000 420 Climbing Fort Worth Center
08:03PM 32.9392 -99.5000 271° West 333 383 38,000  Level Fort Worth Center
08:04PM 32.9411 -99.6214 270° West 349 402 38,000  Level Fort Worth Center
08:05PM 32.9411 -99.7453 272° West 371 427 38,000  Level Fort Worth Center
08:06PM 32.9450 -99.8717 269° West 377 434 38,000  Level Fort Worth Center
08:07PM 32.9422 -100.0003 270° West 383 441 38,000  Level Fort Worth Center
08:08PM 32.9417 -100.1239 269° West 383 441 38,000  Level Fort Worth Center
08:09PM 32.9392 -100.2475 269° West 383 441 38,000  Level Fort Worth Center
08:10PM 32.9381 -100.3836 269° West 383 441 38,000  Level Fort Worth Center
08:11PM 32.9369 -100.5075 271° West 383 441 38,000  Level Fort Worth Center
08:12PM 32.9383 -100.6286 268° West 383 441 38,000  Level Fort Worth Center
08:13PM 32.9356 -100.7253 269° West 383 441 38,000  Level Fort Worth Center
08:14PM 32.9342 -100.8564 271° West 377 434 38,000  Level Fort Worth Center
08:15PM 32.9350 -100.9775 269° West 371 427 38,000  Level Fort Worth Center
08:16PM 32.9336 -101.0989 269° West 365 420 38,000  Level Fort Worth Center
08:17PM 32.9322 -101.2175 269° West 365 420 38,000  Level Fort Worth Center
08:18PM 32.9306 -101.3364 269° West 365 420 38,000  Level Fort Worth Center
08:19PM 32.9289 -101.4550 270° West 365 420 38,000  Level Fort Worth Center
08:20PM 32.9292 -101.5739 268° West 365 420 38,000  Level Fort Worth Center
08:21PM 32.9253 -101.6875 269° West 358 412 38,000  Level Fort Worth Center
08:22PM 32.9233 -101.8061 269° West 358 412 38,000  Level Fort Worth Center
08:23PM 32.9211 -101.9247 270° West 364 419 38,000  Level Fort Worth Center
08:24PM 32.9208 -102.0508 269° West 364 419 38,000  Level Fort Worth Center
08:25PM 32.9183 -102.1719 269° West 364 419 38,000  Level Fort Worth Center
08:26PM 32.9158 -102.2883 270° West 364 419 38,000 -720 Level Fort Worth Center
08:27PM 32.9156 -102.4069 268° West 364 419 36,600 -1,680 Descending Fort Worth Center
08:28PM 32.9128 -102.5231 268° West 364 419 34,700 -1,920 Descending Fort Worth Center
08:29PM 32.9100 -102.6442 269° West 364 419 32,800 -1,980 Descending Fort Worth Center
08:30PM 32.9086 -102.7728 267° West 375 432 30,800 -2,040 Descending Fort Worth Center
08:31PM 32.9036 -102.8911 269° West 383 441 28,800 -2,040 Descending Fort Worth Center
08:32PM 32.9019 -103.0197 268° West 375 432 26,800 -2,100 Descending Fort Worth Center
08:33PM 32.8983 -103.1481 268° West 387 445 24,700 -2,100 Descending Fort Worth Center
08:34PM 32.8947 -103.2714 267° West 387 445 22,700 -2,040 Descending Fort Worth Center
08:35PM 32.8892 -103.3897 269° West 379 436 20,700 -1,440 Descending Fort Worth Center
08:36PM 32.8875 -103.5083 267° West 367 422 19,900 -1,860 Descending Fort Worth Center
08:38PM 32.8778 -103.7436 269° West 348 400 15,200 -2,220 Descending Albuquerque Center
08:39PM 32.8753 -103.8567 268° West 325 374 13,200 -1,800 Descending Albuquerque Center
08:40PM 32.8719 -103.9583 268° West 311 358 11,600 -1,560 Descending Albuquerque Center
08:41PM 32.8686 -104.0594 267° West 308 354 10,000 -1,560 Descending Albuquerque Center
08:42PM 32.8650 -104.1556 267° West 273 314 8,400 -1,500 Descending Albuquerque Center
08:43PM 32.8617 -104.2453 271° West 271 312 6,900 -1,020 Descending Albuquerque Center
08:44PM 32.8636 -104.3433 271° West 273 314 6,400 -540 Descending Albuquerque Center